Time;durP1;ratioP1;P1;durP2;ratioP2;P2;SDS_P1;SDS_P2;PMS_P1;PMS_P2;Temp;Humidity;BMP_temperature;BMP_pressure;BME280_temperature;BME280_humidity;BME280_pressure;Samples;Min_cycle;Max_cycle;Signal;HPM_P1;HPM_P2
2023/10/30 00:00:21;;;;;;;8.55;2.63;;;;;;;11.33;100.00;99326.72;5026931;28;20092;-84
2023/10/30 00:02:48;;;;;;;12.15;3.45;;;;;;;11.37;100.00;99344.44;5014697;28;20109;-83
2023/10/30 00:05:15;;;;;;;11.40;3.90;;;;;;;11.41;100.00;99335.19;5022480;28;20060;-82
2023/10/30 00:07:42;;;;;;;7.18;3.08;;;;;;;11.43;100.00;99337.63;5023611;28;20108;-81
2023/10/30 00:10:09;;;;;;;8.82;3.10;;;;;;;11.49;100.00;99332.44;5023477;28;20049;-82
2023/10/30 00:12:36;;;;;;;11.80;3.40;;;;;;;11.50;100.00;99339.28;5045440;28;20526;-83
2023/10/30 00:15:03;;;;;;;11.77;3.10;;;;;;;11.46;100.00;99343.28;5031352;28;20066;-83
2023/10/30 00:17:31;;;;;;;9.43;3.08;;;;;;;11.44;100.00;99341.88;5043790;28;20049;-85
2023/10/30 00:19:58;;;;;;;8.35;3.25;;;;;;;11.47;100.00;99358.00;5038585;28;20493;-84
2023/10/30 00:22:25;;;;;;;8.93;3.30;;;;;;;11.46;100.00;99364.25;5029748;28;20045;-83
2023/10/30 00:24:52;;;;;;;7.47;3.00;;;;;;;11.56;100.00;99363.91;5038054;28;20053;-83
2023/10/30 00:27:19;;;;;;;9.35;3.13;;;;;;;11.49;100.00;99355.19;5028133;28;20489;-84
2023/10/30 00:29:45;;;;;;;16.00;4.15;;;;;;;11.51;100.00;99355.81;5031721;28;20401;-82
2023/10/30 00:32:12;;;;;;;7.57;3.10;;;;;;;11.51;100.00;99372.34;5035219;28;20144;-82
2023/10/30 00:34:40;;;;;;;11.65;4.03;;;;;;;11.55;100.00;99375.38;5033556;28;20092;-82
2023/10/30 00:37:07;;;;;;;14.07;3.78;;;;;;;11.59;100.00;99379.25;5041658;28;20084;-82
2023/10/30 00:39:33;;;;;;;12.93;3.05;;;;;;;11.52;100.00;99378.38;5037789;28;20088;-81
2023/10/30 00:42:00;;;;;;;14.38;3.78;;;;;;;11.50;100.00;99388.25;5025620;28;20108;-82
2023/10/30 00:44:27;;;;;;;12.05;3.63;;;;;;;11.50;100.00;99396.09;5032079;28;20112;-81
2023/10/30 00:46:54;;;;;;;11.95;3.38;;;;;;;11.53;100.00;99391.28;5029891;28;20080;-83
2023/10/30 00:49:21;;;;;;;11.90;4.10;;;;;;;11.53;100.00;99390.47;5022810;28;20104;-81
2023/10/30 00:51:49;;;;;;;8.13;3.47;;;;;;;11.51;100.00;99395.09;5036170;28;20180;-82
2023/10/30 00:54:15;;;;;;;11.00;3.55;;;;;;;11.43;100.00;99397.88;5030831;28;20419;-83
2023/10/30 00:56:42;;;;;;;15.85;3.50;;;;;;;11.39;100.00;99410.53;5034364;28;20081;-83
2023/10/30 00:59:13;;;;;;;9.88;3.58;;;;;;;11.38;100.00;99408.91;5068070;23;20060;-81
2023/10/30 01:01:40;;;;;;;18.08;3.72;;;;;;;11.35;100.00;99408.47;5048088;28;20054;-80
2023/10/30 01:04:08;;;;;;;13.65;3.60;;;;;;;11.32;100.00;99393.19;5041514;28;20083;-80
2023/10/30 01:06:39;;;;;;;10.18;3.17;;;;;;;11.29;100.00;99386.50;5022025;28;20064;-81
2023/10/30 01:09:08;;;;;;;13.75;3.45;;;;;;;11.26;100.00;99395.56;5023818;28;20049;-81
2023/10/30 01:11:37;;;;;;;11.57;3.22;;;;;;;11.33;100.00;99411.31;5026017;28;20415;-80
2023/10/30 01:14:05;;;;;;;10.45;3.70;;;;;;;11.15;100.00;99388.22;5020527;28;20068;-80
2023/10/30 01:16:34;;;;;;;9.40;3.45;;;;;;;11.24;100.00;99399.38;5025069;28;20050;-81
2023/10/30 01:19:06;;;;;;;11.20;3.63;;;;;;;11.27;100.00;99393.75;5031260;28;20126;-83
2023/10/30 01:21:34;;;;;;;9.05;3.78;;;;;;;11.25;100.00;99404.41;5029418;28;20054;-83
2023/10/30 01:24:01;;;;;;;12.93;3.50;;;;;;;11.17;100.00;99391.47;5028399;28;20420;-83
2023/10/30 01:26:29;;;;;;;8.50;3.47;;;;;;;11.24;100.00;99402.78;5027862;28;20504;-83
2023/10/30 01:28:56;;;;;;;12.95;3.80;;;;;;;11.20;100.00;99390.28;5029372;28;20041;-82
2023/10/30 01:31:27;;;;;;;10.20;3.45;;;;;;;11.22;100.00;99388.28;5027458;28;20046;-82
2023/10/30 01:33:55;;;;;;;11.85;3.50;;;;;;;11.19;100.00;99392.06;5034576;28;20056;-82
2023/10/30 01:36:24;;;;;;;10.75;2.97;;;;;;;11.20;100.00;99387.66;5030811;28;20136;-81
2023/10/30 01:38:53;;;;;;;11.73;3.22;;;;;;;11.27;100.00;99391.13;5024917;28;20045;-81
2023/10/30 01:41:19;;;;;;;12.68;3.90;;;;;;;11.23;100.00;99382.03;5035068;28;20084;-81
2023/10/30 01:43:47;;;;;;;13.23;2.88;;;;;;;11.17;100.00;99391.47;5030170;28;20092;-81
2023/10/30 01:46:14;;;;;;;16.00;3.45;;;;;;;11.22;100.00;99401.38;5024206;28;20145;-80
2023/10/30 01:48:41;;;;;;;9.50;3.15;;;;;;;11.24;100.00;99399.38;5028152;28;20050;-80
2023/10/30 01:51:08;;;;;;;12.65;3.35;;;;;;;11.22;100.00;99398.75;5029584;28;20045;-81
2023/10/30 01:53:35;;;;;;;10.95;3.60;;;;;;;11.24;100.00;99396.75;5028464;28;20069;-81
2023/10/30 01:56:03;;;;;;;9.90;3.35;;;;;;;11.25;100.00;99398.38;5024742;28;20085;-81
2023/10/30 01:58:30;;;;;;;8.43;2.92;;;;;;;11.27;100.00;99401.59;5025293;28;20053;-81
2023/10/30 02:00:59;;;;;;;11.05;3.33;;;;;;;11.23;100.00;99398.56;5023894;28;20065;-82
2023/10/30 02:03:26;;;;;;;10.68;3.53;;;;;;;11.26;100.00;99410.47;5025944;28;20122;-80
2023/10/30 02:05:55;;;;;;;16.08;3.35;;;;;;;11.24;100.00;99407.22;5025312;28;20053;-80
2023/10/30 02:08:22;;;;;;;9.23;3.30;;;;;;;11.26;100.00;99413.88;5026668;28;20056;-80
2023/10/30 02:10:49;;;;;;;11.13;3.35;;;;;;;11.29;100.00;99416.13;5022471;28;20447;-81
2023/10/30 02:13:16;;;;;;;13.40;3.92;;;;;;;11.28;100.00;99411.88;5025585;28;20132;-80
2023/10/30 02:15:42;;;;;;;10.38;3.58;;;;;;;11.29;100.00;99417.94;5026812;28;20081;-80
2023/10/30 02:18:11;;;;;;;11.73;3.00;;;;;;;11.34;100.00;99418.19;5023815;28;20042;-80
2023/10/30 02:20:38;;;;;;;8.23;3.00;;;;;;;11.29;100.00;99415.31;5023916;28;20476;-80
2023/10/30 02:23:05;;;;;;;13.27;3.28;;;;;;;11.32;100.00;99414.13;5023128;28;20095;-81
2023/10/30 02:25:33;;;;;;;14.98;3.83;;;;;;;11.33;100.00;99405.28;5025464;28;20073;-80
2023/10/30 02:28:00;;;;;;;13.85;4.28;;;;;;;11.32;100.00;99399.22;5027140;28;20054;-80
2023/10/30 02:30:27;;;;;;;9.45;3.20;;;;;;;11.35;100.00;99396.19;5023405;28;20045;-80
2023/10/30 02:32:54;;;;;;;14.55;3.17;;;;;;;11.42;100.00;99393.63;5023480;28;20041;-80
2023/10/30 02:35:21;;;;;;;10.48;3.55;;;;;;;11.36;100.00;99392.59;5025496;28;20046;-80
2023/10/30 02:37:48;;;;;;;10.27;3.58;;;;;;;11.44;100.00;99402.91;5023320;28;20050;-80
2023/10/30 02:40:18;;;;;;;8.25;3.10;;;;;;;11.46;100.00;99406.16;5025730;28;20069;-81
2023/10/30 02:42:48;;;;;;;9.25;3.40;;;;;;;11.50;100.00;99406.59;5022740;28;20038;-82
2023/10/30 02:45:14;;;;;;;12.18;3.22;;;;;;;11.47;100.00;99399.91;5022892;28;20054;-81
2023/10/30 02:47:41;;;;;;;12.68;3.50;;;;;;;11.43;100.00;99390.81;5022563;28;20061;-80
2023/10/30 02:50:12;;;;;;;14.95;3.35;;;;;;;11.37;100.00;99396.00;5020528;28;20180;-81
2023/10/30 02:52:39;;;;;;;11.20;3.35;;;;;;;11.29;100.00;99399.59;5022870;28;20062;-81
2023/10/30 02:55:10;;;;;;;8.45;3.38;;;;;;;11.26;100.00;99410.47;5022226;28;20118;-81
2023/10/30 02:57:37;;;;;;;9.82;2.83;;;;;;;11.19;100.00;99410.41;5025241;28;20041;-81
2023/10/30 03:00:06;;;;;;;9.60;3.30;;;;;;;11.20;100.00;99403.34;5024295;28;20085;-80
2023/10/30 03:02:33;;;;;;;9.10;3.08;;;;;;;11.19;100.00;99406.97;5023128;28;20073;-82
2023/10/30 03:04:59;;;;;;;11.43;3.63;;;;;;;11.17;100.00;99395.88;5028258;28;20503;-81
2023/10/30 03:07:29;;;;;;;11.82;3.40;;;;;;;11.20;100.00;99398.94;5026950;28;20069;-81
2023/10/30 03:09:55;;;;;;;8.68;3.20;;;;;;;11.18;100.00;99395.69;5025160;28;20060;-80
2023/10/30 03:12:22;;;;;;;10.35;3.22;;;;;;;11.14;100.00;99398.88;5021546;28;20200;-80
2023/10/30 03:14:49;;;;;;;12.98;3.38;;;;;;;11.15;100.00;99397.88;5026333;28;20085;-80
2023/10/30 03:17:17;;;;;;;10.23;3.13;;;;;;;11.16;100.00;99394.25;5021315;28;20558;-80
2023/10/30 03:19:43;;;;;;;8.50;3.75;;;;;;;11.19;100.00;99399.13;5021383;28;20114;-80
2023/10/30 03:22:10;;;;;;;10.90;3.45;;;;;;;11.12;100.00;99403.50;5021972;28;20050;-80
2023/10/30 03:24:37;;;;;;;9.77;2.80;;;;;;;11.14;100.00;99401.50;5022546;28;20113;-79
2023/10/30 03:27:03;;;;;;;9.73;3.40;;;;;;;11.09;100.00;99406.47;5025776;28;20050;-82
2023/10/30 03:29:30;;;;;;;9.77;3.40;;;;;;;11.09;100.00;99393.41;5019819;28;20104;-81
2023/10/30 03:31:57;;;;;;;10.50;3.33;;;;;;;11.11;100.00;99407.91;5026089;28;20046;-81
2023/10/30 03:34:25;;;;;;;12.35;3.13;;;;;;;11.09;100.00;99403.88;5022019;28;20054;-79
2023/10/30 03:36:52;;;;;;;14.95;4.40;;;;;;;11.08;100.00;99400.44;5023508;28;20196;-80
2023/10/30 03:39:18;;;;;;;9.93;3.17;;;;;;;11.02;100.00;99410.84;5028017;28;20357;-79
2023/10/30 03:41:45;;;;;;;10.20;3.80;;;;;;;11.00;100.00;99411.03;5026013;28;20056;-80
2023/10/30 03:44:12;;;;;;;17.80;4.00;;;;;;;10.91;100.00;99420.81;5027550;28;20527;-81
2023/10/30 03:46:39;;;;;;;10.77;3.95;;;;;;;10.87;100.00;99422.19;5025966;28;20101;-81
2023/10/30 03:49:08;;;;;;;10.68;4.25;;;;;;;10.82;100.00;99424.59;5030569;28;20092;-81
2023/10/30 03:51:37;;;;;;;14.32;4.07;;;;;;;10.78;100.00;99423.34;5027477;28;20109;-81
2023/10/30 03:54:05;;;;;;;9.15;4.10;;;;;;;10.75;100.00;99425.50;5025971;28;20057;-81
2023/10/30 03:56:32;;;;;;;13.35;4.18;;;;;;;10.74;100.00;99416.84;5027495;28;20121;-81
2023/10/30 03:58:59;;;;;;;10.50;3.70;;;;;;;10.74;100.00;99416.84;5029271;28;20049;-82
2023/10/30 04:01:27;;;;;;;10.30;3.70;;;;;;;10.75;100.00;99412.44;5024646;28;20062;-82
2023/10/30 04:03:55;;;;;;;9.07;3.90;;;;;;;10.69;100.00;99424.44;5025258;28;20057;-82
2023/10/30 04:06:24;;;;;;;17.63;4.50;;;;;;;10.68;100.00;99417.59;5032794;28;20132;-81
2023/10/30 04:08:52;;;;;;;14.88;4.82;;;;;;;10.71;100.00;99424.25;5023779;28;20073;-80
2023/10/30 04:11:18;;;;;;;20.77;4.40;;;;;;;10.74;100.00;99426.50;5026702;28;20420;-80
2023/10/30 04:13:45;;;;;;;10.32;4.55;;;;;;;10.76;100.00;99433.19;5023896;28;20077;-81
2023/10/30 04:16:15;;;;;;;10.95;4.18;;;;;;;10.76;100.00;99430.56;5025040;28;20427;-79
2023/10/30 04:18:42;;;;;;;12.90;3.83;;;;;;;10.79;100.00;99427.56;5024945;28;20459;-80
2023/10/30 04:21:09;;;;;;;8.48;3.60;;;;;;;10.78;100.00;99431.19;5024581;28;20120;-80
2023/10/30 04:23:36;;;;;;;7.75;3.30;;;;;;;10.78;100.00;99430.38;5021388;28;20133;-80
2023/10/30 04:26:05;;;;;;;17.13;3.60;;;;;;;10.75;100.00;99421.09;5026993;28;20141;-80
2023/10/30 04:28:31;;;;;;;22.10;4.28;;;;;;;10.75;100.00;99415.03;5024170;28;20038;-80
2023/10/30 04:30:58;;;;;;;13.60;4.22;;;;;;;10.79;100.00;99413.69;5028473;28;20076;-80
2023/10/30 04:33:24;;;;;;;10.82;3.42;;;;;;;10.81;100.00;99424.78;5024164;28;20056;-81
2023/10/30 04:35:51;;;;;;;12.10;4.57;;;;;;;10.84;100.00;99427.03;5029263;28;20078;-80
2023/10/30 04:38:18;;;;;;;9.98;3.60;;;;;;;10.88;100.00;99415.97;5039976;28;20068;-80
2023/10/30 04:40:44;;;;;;;14.07;3.50;;;;;;;10.93;100.00;99423.25;5028563;28;20053;-80
2023/10/30 04:43:12;;;;;;;15.07;3.50;;;;;;;10.92;100.00;99419.81;5035064;28;20053;-80
2023/10/30 04:45:39;;;;;;;16.50;3.85;;;;;;;10.98;100.00;99429.56;5032853;28;20041;-80
2023/10/30 04:48:06;;;;;;;11.50;3.83;;;;;;;10.98;100.00;99423.50;5033810;28;20088;-79
2023/10/30 04:50:33;;;;;;;9.35;3.85;;;;;;;11.03;100.00;99421.13;5026449;28;20492;-78
2023/10/30 04:52:59;;;;;;;12.00;3.67;;;;;;;11.06;100.00;99425.19;5024481;28;20050;-78
2023/10/30 04:55:26;;;;;;;10.75;3.60;;;;;;;11.07;100.00;99416.34;5021455;28;20160;-80
2023/10/30 04:57:53;;;;;;;13.68;4.10;;;;;;;11.06;100.00;99427.81;5032761;28;20049;-79
2023/10/30 05:00:21;;;;;;;9.98;3.85;;;;;;;11.01;100.00;99409.22;5026757;28;20134;-82
2023/10/30 05:02:47;;;;;;;13.38;3.65;;;;;;;11.00;100.00;99418.91;5023410;28;20108;-81
2023/10/30 05:05:17;;;;;;;9.48;3.38;;;;;;;11.02;100.00;99423.94;5020194;28;20053;-81
2023/10/30 05:07:44;;;;;;;12.77;3.60;;;;;;;11.06;100.00;99425.19;5020787;28;20109;-80
2023/10/30 05:10:12;;;;;;;9.40;3.83;;;;;;;11.05;100.00;99418.31;5017838;28;20072;-79
2023/10/30 05:12:41;;;;;;;10.25;3.58;;;;;;;11.05;100.00;99428.81;5021810;28;20108;-79
2023/10/30 05:15:09;;;;;;;12.35;3.90;;;;;;;11.07;100.00;99430.22;5022630;28;20073;-79
2023/10/30 05:17:38;;;;;;;10.93;3.70;;;;;;;11.08;100.00;99441.50;5026178;28;20092;-80
2023/10/30 05:20:06;;;;;;;10.95;3.58;;;;;;;11.11;100.00;99443.75;5024033;28;20054;-79
2023/10/30 05:22:33;;;;;;;10.60;3.50;;;;;;;11.07;100.00;99447.75;5023745;28;20148;-79
2023/10/30 05:25:01;;;;;;;15.40;4.18;;;;;;;11.08;100.00;99455.41;5021663;28;20476;-81
2023/10/30 05:27:28;;;;;;;10.68;3.72;;;;;;;11.05;100.00;99450.56;5025630;28;20049;-81
2023/10/30 05:29:55;;;;;;;14.68;4.68;;;;;;;11.07;100.00;99448.56;5025606;28;20122;-80
2023/10/30 05:32:22;;;;;;;11.40;3.95;;;;;;;11.00;100.00;99458.16;5020277;28;20084;-81
2023/10/30 05:34:52;;;;;;;7.47;3.50;;;;;;;11.05;100.00;99457.59;5026601;28;20053;-81
2023/10/30 05:37:19;;;;;;;13.27;4.50;;;;;;;11.01;100.00;99459.78;5022373;28;20077;-80
2023/10/30 05:39:45;;;;;;;10.40;3.83;;;;;;;10.97;100.00;99455.91;5031412;28;20053;-80
2023/10/30 05:42:12;;;;;;;13.10;4.07;;;;;;;10.93;100.00;99458.09;5027119;28;20049;-80
2023/10/30 05:44:38;;;;;;;11.55;3.78;;;;;;;10.96;100.00;99456.91;5021769;28;20073;-80
2023/10/30 05:47:07;;;;;;;14.18;4.10;;;;;;;10.97;100.00;99448.88;5020259;28;20137;-80
2023/10/30 05:49:34;;;;;;;11.07;3.97;;;;;;;10.95;100.00;99460.53;5022363;28;20371;-79
2023/10/30 05:52:02;;;;;;;10.30;3.72;;;;;;;11.00;100.00;99460.78;5024764;28;20049;-79
2023/10/30 05:54:29;;;;;;;7.50;4.03;;;;;;;10.97;100.00;99458.53;5022744;28;20069;-80
2023/10/30 05:56:55;;;;;;;14.63;4.20;;;;;;;10.94;100.00;99454.47;5020347;28;20104;-80
2023/10/30 05:59:23;;;;;;;15.25;3.83;;;;;;;10.94;100.00;99448.44;5021673;28;20107;-80
2023/10/30 06:01:49;;;;;;;9.02;3.40;;;;;;;10.94;100.00;99438.78;5022165;28;20097;-79
2023/10/30 06:04:16;;;;;;;10.80;3.80;;;;;;;10.98;100.00;99442.63;5020087;28;20088;-81
2023/10/30 06:06:43;;;;;;;7.25;3.50;;;;;;;10.98;100.00;99447.88;5022643;28;20121;-80
2023/10/30 06:09:26;;;;;;;;;;;;;;;;;;;;;
2023/10/30 06:12:00;;;;;;;13.40;3.95;;;;;;;10.99;100.00;99448.69;5020378;28;20041;-80
2023/10/30 06:14:54;;;;;;;10.07;3.53;;;;;;;10.95;100.00;99431.72;5022453;28;20077;-79
2023/10/30 06:17:33;;;;;;;9.90;4.20;;;;;;;10.95;100.00;99443.00;5021465;28;20080;-80
2023/10/30 06:23:37;;;;;;;9.75;3.75;;;;;;;10.90;100.00;99423.63;5004634;28;20069;-80
2023/10/30 06:30:37;;;;;;;10.18;3.80;;;;;;;11.00;100.00;99431.16;5012062;28;20057;-81
2023/10/30 06:36:12;;;;;;;9.48;4.10;;;;;;;10.92;100.00;99432.09;5023542;28;20598;-81
2023/10/30 06:43:01;;;;;;;12.27;4.55;;;;;;;10.92;100.00;99432.09;4964736;28;20197;-81
2023/10/30 06:46:05;;;;;;;9.63;4.05;;;;;;;10.82;100.00;99424.59;5027894;28;20049;-80
2023/10/30 06:48:51;;;;;;;16.38;5.15;;;;;;;10.84;100.00;99427.81;5027498;28;20065;-80
2023/10/30 06:51:41;;;;;;;13.13;4.45;;;;;;;10.84;100.00;99422.59;5037496;28;20140;-80
2023/10/30 06:54:19;;;;;;;12.73;4.78;;;;;;;10.93;100.00;99446.81;5027926;28;20050;-81
2023/10/30 06:56:55;;;;;;;9.60;4.85;;;;;;;10.84;100.00;99443.53;5030360;28;20117;-89
2023/10/30 07:47:06;;;;;;;13.15;4.35;;;;;;;11.83;100.00;99460.03;5038810;28;20068;-80
2023/10/30 07:49:32;;;;;;;10.95;4.25;;;;;;;11.90;100.00;99462.69;5038046;28;20078;-80
2023/10/30 07:51:59;;;;;;;17.38;4.68;;;;;;;12.02;100.00;99455.09;5039355;28;20136;-80
2023/10/30 07:54:26;;;;;;;15.18;4.40;;;;;;;12.12;100.00;99456.38;5034601;28;20063;-80
2023/10/30 07:56:52;;;;;;;12.15;5.05;;;;;;;12.12;100.00;99451.13;5051139;28;20073;-80
2023/10/30 07:59:19;;;;;;;10.75;4.43;;;;;;;12.10;100.00;99449.69;5040275;28;20050;-78
2023/10/30 08:02:12;;;;;;;;;;;;;;;;;;;;;
2023/10/30 08:08:17;;;;;;;13.20;4.80;;;;;;;12.31;100.00;99436.47;5055930;28;19972;-82
2023/10/30 08:11:06;;;;;;;11.13;4.40;;;;;;;12.24;100.00;99425.97;5065242;28;20100;-82
2023/10/30 08:17:53;;;;;;;11.40;4.70;;;;;;;12.44;100.00;99446.19;4968869;28;20055;-82
2023/10/30 08:20:54;;;;;;;10.80;4.72;;;;;;;12.60;100.00;99435.38;4971874;28;20089;-84
2023/10/30 08:23:40;;;;;;;12.23;4.72;;;;;;;12.69;100.00;99454.38;4968064;28;20055;-84
2023/10/30 08:26:10;;;;;;;18.45;5.70;;;;;;;12.73;100.00;99440.66;4967342;28;20051;-81
2023/10/30 08:28:39;;;;;;;9.95;4.90;;;;;;;12.85;100.00;99454.78;5045243;28;20049;-80
2023/10/30 08:31:08;;;;;;;12.43;4.43;;;;;;;12.77;100.00;99447.09;5060370;28;20041;-80
2023/10/30 08:33:38;;;;;;;11.60;5.00;;;;;;;12.83;100.00;99430.56;5049410;28;20049;-80
2023/10/30 08:36:08;;;;;;;10.23;4.32;;;;;;;13.00;100.00;99430.97;5047532;28;20050;-80
2023/10/30 08:46:14;;;;;;;12.23;4.30;;;;;;;13.31;100.00;99412.00;4968713;28;20059;-81
2023/10/30 08:49:10;;;;;;;6.90;3.92;;;;;;;13.38;100.00;99418.06;4981655;28;20058;-81
2023/10/30 08:52:13;;;;;;;7.57;3.88;;;;;;;13.49;100.00;99425.34;4963815;28;20047;-81
2023/10/30 08:55:18;;;;;;;8.93;4.43;;;;;;;13.49;100.00;99416.66;4964047;28;20059;-80
2023/10/30 09:01:13;;;;;;;9.38;3.63;;;;;;;13.49;100.00;99425.34;5048639;28;20049;-81
2023/10/30 09:03:42;;;;;;;8.90;3.63;;;;;;;13.56;100.00;99420.91;5059599;28;20086;-81
2023/10/30 09:06:11;;;;;;;8.77;3.80;;;;;;;13.44;100.00;99401.50;5060520;28;20056;-80
2023/10/30 09:08:47;;;;;;;6.95;3.40;;;;;;;13.59;100.00;99409.97;5058359;28;20056;-81
2023/10/30 09:11:16;;;;;;;7.28;3.88;;;;;;;13.58;99.73;99400.47;5055167;28;20041;-81
2023/10/30 09:13:43;;;;;;;6.65;3.80;;;;;;;13.43;99.28;99394.63;5050637;28;20122;-80
2023/10/30 09:16:13;;;;;;;4.78;3.03;;;;;;;13.57;97.84;99377.03;5058969;28;20076;-81
2023/10/30 09:18:45;;;;;;;3.95;2.63;;;;;;;13.73;97.11;99383.63;5044690;28;20127;-80
2023/10/30 09:21:15;;;;;;;11.20;3.42;;;;;;;13.74;96.62;99386.06;5057549;28;20049;-81
2023/10/30 09:23:45;;;;;;;5.03;3.10;;;;;;;13.83;95.87;99391.91;5060326;28;20061;-81
2023/10/30 09:26:21;;;;;;;6.38;3.03;;;;;;;13.76;96.02;99378.78;5058134;28;20045;-80
2023/10/30 09:31:49;;;;;;;4.40;2.80;;;;;;;13.84;95.94;99385.63;4989536;28;20056;-81
2023/10/30 09:34:19;;;;;;;6.22;3.45;;;;;;;13.87;96.07;99372.88;5058221;28;20060;-81
2023/10/30 09:36:45;;;;;;;5.95;3.28;;;;;;;13.80;96.49;99363.41;5039105;28;20079;-80
2023/10/30 09:39:13;;;;;;;7.35;3.20;;;;;;;13.92;96.21;99380.16;5045136;28;20159;-80
2023/10/30 09:41:45;;;;;;;6.72;2.83;;;;;;;13.95;95.57;99361.31;5059480;28;20526;-80
2023/10/30 09:44:14;;;;;;;4.43;2.57;;;;;;;13.90;95.30;99359.31;5057730;28;20471;-80
2023/10/30 09:46:41;;;;;;;5.65;2.90;;;;;;;14.13;95.33;99379.88;5057655;28;20738;-79
2023/10/30 09:49:11;;;;;;;8.25;3.10;;;;;;;14.21;94.39;99366.47;5057778;28;20110;-79
2023/10/30 09:51:39;;;;;;;9.13;2.88;;;;;;;14.32;93.86;99372.88;5057377;28;20077;-80
2023/10/30 09:54:07;;;;;;;5.07;2.38;;;;;;;14.28;93.26;99367.22;5059239;28;20077;-80
2023/10/30 09:56:34;;;;;;;5.80;2.25;;;;;;;14.22;92.78;99359.38;5057588;28;20128;-79
2023/10/30 09:59:02;;;;;;;6.78;2.45;;;;;;;14.46;92.68;99363.13;5058174;28;20566;-79
2023/10/30 10:01:29;;;;;;;6.10;2.63;;;;;;;14.41;92.16;99360.28;5056983;28;20052;-79
2023/10/30 10:03:56;;;;;;;5.05;2.70;;;;;;;14.43;91.97;99366.19;5052290;28;20096;-79
2023/10/30 10:06:22;;;;;;;3.97;2.20;;;;;;;14.58;91.97;99367.50;5035789;28;20093;-80
2023/10/30 10:08:49;;;;;;;4.05;2.47;;;;;;;14.44;91.66;99355.44;5036624;28;20145;-79
2023/10/30 10:11:16;;;;;;;4.25;2.40;;;;;;;14.66;91.63;99357.72;5034898;28;20053;-80
2023/10/30 10:13:48;;;;;;;4.18;2.33;;;;;;;14.65;90.75;99351.66;5045647;28;20076;-79
2023/10/30 10:16:17;;;;;;;4.10;2.08;;;;;;;14.81;91.38;99360.84;5057655;28;20113;-79
2023/10/30 10:18:44;;;;;;;3.00;1.80;;;;;;;14.84;90.18;99350.69;5044150;28;20060;-79
2023/10/30 10:21:11;;;;;;;2.83;2.20;;;;;;;14.80;90.00;99344.25;5058890;28;20140;-79
2023/10/30 10:23:39;;;;;;;3.80;2.00;;;;;;;15.04;90.65;99362.91;5056362;28;20053;-79
2023/10/30 10:26:13;;;;;;;4.68;2.03;;;;;;;15.24;90.39;99356.44;5045509;28;20117;-79
2023/10/30 10:28:40;;;;;;;4.15;1.92;;;;;;;14.99;90.05;99347.75;5059118;28;20075;-79
2023/10/30 10:31:07;;;;;;;4.13;2.20;;;;;;;15.18;90.04;99353.84;5058828;28;20083;-79
2023/10/30 10:33:35;;;;;;;5.00;1.63;;;;;;;15.45;90.33;99357.88;5048766;28;20041;-80
2023/10/30 10:36:03;;;;;;;4.63;1.95;;;;;;;15.35;89.16;99346.19;5038345;28;20106;-79
2023/10/30 10:38:30;;;;;;;6.88;1.98;;;;;;;15.34;89.76;99334.84;5047843;28;20061;-79
2023/10/30 10:40:57;;;;;;;4.22;1.90;;;;;;;15.31;90.42;99345.03;5040082;28;20183;-79
2023/10/30 10:43:31;;;;;;;2.30;1.83;;;;;;;15.51;90.57;99341.16;5056401;28;20109;-79
2023/10/30 10:45:59;;;;;;;4.05;1.95;;;;;;;15.45;89.77;99330.69;5061963;28;20049;-78
2023/10/30 10:48:27;;;;;;;6.07;2.67;;;;;;;15.46;89.54;99325.19;5066229;28;20049;-79
2023/10/30 10:50:56;;;;;;;4.57;3.10;;;;;;;15.45;90.63;99331.50;5064173;28;20052;-79
2023/10/30 10:53:27;;;;;;;4.68;2.55;;;;;;;15.46;90.61;99327.84;5063637;28;20055;-79
2023/10/30 10:56:05;;;;;;;3.85;2.25;;;;;;;15.18;91.02;99328.31;5066663;28;20053;-79
2023/10/30 11:31:12;;;;;;;5.40;3.17;;;;;;;14.83;94.31;99264.81;4958348;28;20113;-79
2023/10/30 11:41:49;;;;;;;;;;;;;;;;;;;;;
2023/10/30 12:29:44;;;;;;;3.50;1.85;;;;;;;15.51;91.86;99150.56;5000467;28;20050;-79
2023/10/30 13:46:46;;;;;;;1.83;1.60;;;;;;;14.98;92.16;99018.72;4987611;28;20065;-79
2023/10/30 13:57:01;;;;;;;;;;;;;;;;;;;;;
2023/10/30 14:00:33;;;;;;;;;;;;;;;;;;;;;
2023/10/30 14:03:32;;;;;;;1.33;1.23;;;;;;;14.74;92.98;98987.00;4966604;28;20054;-79
2023/10/30 16:55:20;;;;;;;11.38;5.53;;;;;;;13.21;100.00;98959.88;4993389;23;20421;-77
2023/10/30 16:57:47;;;;;;;8.95;5.35;;;;;;;13.10;100.00;98947.38;4974073;28;20079;-77
2023/10/30 17:00:16;;;;;;;8.27;5.10;;;;;;;13.13;100.00;98957.47;4973644;28;20145;-78
2023/10/30 17:02:43;;;;;;;8.38;5.53;;;;;;;13.13;100.00;98957.47;4975668;28;20137;-77
2023/10/30 17:05:10;;;;;;;7.70;4.65;;;;;;;13.10;100.00;98957.88;4964381;28;20078;-78
2023/10/30 17:07:36;;;;;;;9.73;6.30;;;;;;;13.05;100.00;98961.16;4952997;28;20050;-78
2023/10/30 17:10:03;;;;;;;9.18;5.88;;;;;;;13.01;100.00;98964.41;4950003;28;20148;-77
2023/10/30 17:12:30;;;;;;;9.85;5.05;;;;;;;12.98;100.00;98967.47;4952462;29;20082;-79
2023/10/30 17:14:56;;;;;;;8.88;5.47;;;;;;;12.96;100.00;98973.72;4955132;28;20336;-79
2023/10/30 17:17:24;;;;;;;9.35;5.43;;;;;;;13.05;100.00;98969.03;4954765;28;20151;-79
2023/10/30 17:19:51;;;;;;;10.20;5.35;;;;;;;13.03;100.00;98962.38;4948672;29;20130;-78
2023/10/30 17:22:17;;;;;;;15.13;8.05;;;;;;;13.09;100.00;98972.84;4953467;28;20055;-78
2023/10/30 17:24:44;;;;;;;13.00;7.40;;;;;;;13.05;100.00;98973.47;4951861;28;20502;-76
2023/10/30 17:27:13;;;;;;;27.98;17.50;;;;;;;13.08;100.00;98976.47;4952043;29;20143;-77
2023/10/30 17:29:39;;;;;;;15.32;10.13;;;;;;;13.09;100.00;98967.59;4951860;29;20440;-78
2023/10/30 17:32:06;;;;;;;7.97;6.13;;;;;;;13.10;100.00;98978.91;4952801;29;20047;-78
2023/10/30 17:34:34;;;;;;;19.35;11.63;;;;;;;13.16;100.00;98983.34;4951484;28;20051;-78
2023/10/30 17:37:01;;;;;;;12.73;9.02;;;;;;;13.11;100.00;98967.38;4952267;29;20055;-78
2023/10/30 17:39:28;;;;;;;11.05;7.97;;;;;;;13.09;100.00;98969.41;4948979;29;20133;-78
2023/10/30 17:41:55;;;;;;;13.50;10.30;;;;;;;13.12;100.00;98961.09;4952160;28;20157;-79
2023/10/30 17:44:21;;;;;;;11.32;8.80;;;;;;;13.14;100.00;98959.88;4954272;29;20051;-79
2023/10/30 17:46:48;;;;;;;14.20;10.80;;;;;;;13.17;100.00;98958.69;4955584;28;20116;-78
2023/10/30 17:49:14;;;;;;;13.25;10.52;;;;;;;13.16;100.00;98947.38;4955956;29;20051;-78
2023/10/30 17:51:43;;;;;;;12.82;9.23;;;;;;;13.13;100.00;98952.22;4956631;29;20138;-78
2023/10/30 17:54:09;;;;;;;11.10;9.68;;;;;;;13.19;100.00;98959.28;4951683;28;20800;-79
2023/10/30 17:56:36;;;;;;;13.82;10.32;;;;;;;13.16;100.00;98967.56;4953095;29;20137;-78
2023/10/30 17:59:04;;;;;;;12.88;9.32;;;;;;;13.12;100.00;98961.09;4952709;29;20142;-78
2023/10/30 18:01:31;;;;;;;9.98;7.60;;;;;;;13.08;100.00;98962.53;4950399;28;20043;-78
2023/10/30 18:03:58;;;;;;;9.40;7.47;;;;;;;13.03;100.00;98947.44;4952124;28;20070;-78
2023/10/30 18:06:25;;;;;;;9.88;8.25;;;;;;;13.04;100.00;98943.78;4952528;28;20063;-79
2023/10/30 18:08:53;;;;;;;10.15;8.05;;;;;;;13.00;100.00;98933.91;4952466;28;20043;-76
2023/10/30 18:11:20;;;;;;;11.23;8.20;;;;;;;13.03;100.00;98941.38;4952703;28;20078;-76
2023/10/30 18:13:46;;;;;;;10.88;8.10;;;;;;;13.01;100.00;98933.72;4952660;28;20421;-76
2023/10/30 18:16:13;;;;;;;12.63;8.70;;;;;;;12.91;100.00;98923.66;4952467;28;20506;-76
2023/10/30 18:18:40;;;;;;;11.35;8.77;;;;;;;12.89;100.00;98920.44;4952975;29;20134;-77
2023/10/30 18:21:07;;;;;;;12.07;9.10;;;;;;;12.86;100.00;98910.38;4952670;28;20137;-77
2023/10/30 18:23:34;;;;;;;11.45;9.20;;;;;;;12.86;100.00;98918.25;4953244;28;20491;-78
2023/10/30 18:26:03;;;;;;;12.75;8.70;;;;;;;12.91;100.00;98921.03;4951722;28;20054;-76
2023/10/30 18:28:29;;;;;;;12.95;9.15;;;;;;;12.90;100.00;98932.56;4953472;28;20109;-77
2023/10/30 18:30:56;;;;;;;11.45;9.25;;;;;;;13.08;100.00;98933.66;4953041;28;20147;-78
2023/10/30 18:33:26;;;;;;;11.85;9.40;;;;;;;13.09;100.00;98917.69;4952678;29;20079;-77
2023/10/30 18:35:52;;;;;;;14.52;9.68;;;;;;;13.12;100.00;98934.84;4944984;29;20505;-77
2023/10/30 18:38:19;;;;;;;12.50;10.32;;;;;;;13.10;100.00;98936.88;4955401;28;20161;-77
2023/10/30 18:40:48;;;;;;;12.55;10.05;;;;;;;13.12;100.00;98930.41;4958164;29;20055;-76